This is the latest recevied weather packets stored in our database for station/object K5VP. If no packets are shown the sender has not sent any weather packets the latest 10 day(s).
| Time | Temp. | Humidity | Pressure | Rain* | Wind** | Luminosity | Snow |
|---|---|---|---|---|---|---|---|
| 1777558070 | 13.33° C | 52% | 1019.2 hPa | 0 mm | - | - | - |
| 1777557766 | 13.33° C | 52% | 1019.4 hPa | 0 mm | - | - | - |
| 1777557458 | 13.33° C | 56% | 1019.5 hPa | 0 mm | - | - | - |
| 1777557149 | 13.33° C | 55% | 1019.4 hPa | 0 mm | - | - | - |
| 1777534828 | 12.22° C | 77% | 1016.7 hPa | 0 mm | - | - | - |
| 1777534509 | 12.22° C | 76% | 1016.9 hPa | 0 mm | - | - | - |
| 1777534202 | 12.22° C | 75% | 1017 hPa | 0 mm | - | - | - |
| 1777533909 | 12.22° C | 75% | 1017.1 hPa | 0 mm | - | - | - |
| 1777533606 | 12.22° C | 75% | 1017.2 hPa | 0 mm | - | - | - |
| 1777533304 | 12.78° C | 74% | 1017.2 hPa | 0 mm | - | - | - |
| 1777488710 | 17.78° C | 80% | 1015.9 hPa | 0 mm | - | - | - |
| 1777488398 | 17.78° C | 79% | 1016 hPa | 0 mm | - | - | - |
| 1777488080 | 17.78° C | 79% | 1016.1 hPa | 0 mm | - | - | - |
| 1777487775 | 17.78° C | 79% | 1016.1 hPa | 0 mm | - | - | - |
| 1777487479 | 17.78° C | 78% | 1016.1 hPa | 0 mm | - | - | - |
| 1777487184 | 18.33° C | 77% | 1016.1 hPa | 0 mm | - | - | - |
| 1777486873 | 18.33° C | 79% | 1016.1 hPa | 0 mm | - | - | - |
| 1777486576 | 18.33° C | 78% | 1016 hPa | 0 mm | - | - | - |
| 1777486266 | 17.78° C | 80% | 1016 hPa | 0 mm | - | - | - |
| 1777485971 | 17.78° C | 78% | 1016.1 hPa | 0 mm | - | - | - |
| 1777485662 | 17.78° C | 81% | 1016.2 hPa | 0 mm | - | - | - |
| 1777485350 | 17.78° C | 81% | 1016.1 hPa | 0 mm | - | - | - |
| 1777485033 | 17.78° C | 81% | 1016.2 hPa | 0 mm | - | - | - |
| 1777484724 | 17.78° C | 81% | 1016.2 hPa | 0 mm | - | - | - |
| 1777484423 | 17.78° C | 81% | 1016.3 hPa | 0 mm | - | - | - |
* Rain latest hour (hover to see other rain measurements)
** Current wind speed in m/s (hover to see current wind gust speed)